Time;durP1;ratioP1;P1;durP2;ratioP2;P2;SDS_P1;SDS_P2;PMS_P1;PMS_P2;Temp;Humidity;BMP_temperature;BMP_pressure;BME280_temperature;BME280_humidity;BME280_pressure;Samples;Min_cycle;Max_cycle;Signal;HPM_P1;HPM_P2
2022/10/15 00:00:26;;;;;;;2.38;2.00;;;16.80;66.10;;;;;;5053003;28;20630;-66
2022/10/15 00:02:51;;;;;;;2.65;2.13;;;16.70;66.10;;;;;;5053284;28;20245;-66
2022/10/15 00:05:17;;;;;;;2.25;2.05;;;16.80;66.20;;;;;;5053208;28;20179;-65
2022/10/15 00:07:42;;;;;;;1.90;1.80;;;16.70;66.10;;;;;;5052401;28;20187;-66
2022/10/15 00:10:08;;;;;;;2.25;2.05;;;16.70;66.20;;;;;;5052925;28;20226;-66
2022/10/15 00:12:34;;;;;;;2.45;1.95;;;16.70;66.20;;;;;;5053190;28;20668;-66
2022/10/15 00:14:59;;;;;;;2.45;1.98;;;16.70;66.20;;;;;;5052149;28;20253;-66
2022/10/15 00:17:25;;;;;;;2.45;1.90;;;16.70;66.20;;;;;;5053250;28;20227;-66
2022/10/15 00:19:50;;;;;;;2.40;2.20;;;16.70;66.20;;;;;;5053251;28;20171;-66
2022/10/15 00:22:16;;;;;;;1.95;1.85;;;16.70;66.30;;;;;;5052124;28;20566;-65
2022/10/15 00:24:41;;;;;;;2.80;1.80;;;16.70;66.20;;;;;;5053302;28;20171;-66
2022/10/15 00:27:07;;;;;;;2.03;1.90;;;16.70;66.30;;;;;;5052912;28;20588;-66
2022/10/15 00:29:32;;;;;;;2.20;2.10;;;16.70;66.20;;;;;;5052012;28;20708;-66
2022/10/15 00:31:59;;;;;;;2.22;2.03;;;16.70;66.30;;;;;;5052510;28;20242;-65
2022/10/15 00:34:24;;;;;;;1.92;1.83;;;16.70;66.30;;;;;;5052892;28;20179;-65
2022/10/15 00:36:50;;;;;;;1.70;1.60;;;16.70;66.30;;;;;;5052119;28;20201;-66
2022/10/15 00:39:15;;;;;;;2.60;2.40;;;16.70;66.30;;;;;;5052598;28;20568;-65
2022/10/15 00:41:42;;;;;;;2.10;2.00;;;16.70;66.40;;;;;;5053065;28;20179;-66
2022/10/15 00:44:19;;;;;;;2.58;2.33;;;16.70;66.40;;;;;;5052015;28;20267;-66
2022/10/15 00:46:45;;;;;;;2.40;1.77;;;16.60;66.20;;;;;;5052874;28;20224;-66
2022/10/15 00:49:14;;;;;;;2.20;2.10;;;16.70;66.40;;;;;;5051233;28;20178;-66
2022/10/15 00:51:41;;;;;;;2.08;1.95;;;16.70;66.30;;;;;;5050763;28;20249;-66
2022/10/15 00:54:08;;;;;;;1.90;1.80;;;16.60;66.40;;;;;;5052689;28;20361;-66
2022/10/15 00:56:33;;;;;;;2.15;1.90;;;16.60;66.40;;;;;;5051629;28;20190;-66
2022/10/15 00:58:59;;;;;;;2.35;2.17;;;16.60;66.40;;;;;;5051910;28;20209;-66
2022/10/15 01:01:24;;;;;;;2.40;2.20;;;16.70;66.50;;;;;;5051440;28;20272;-66
2022/10/15 01:03:51;;;;;;;2.47;2.30;;;16.60;66.30;;;;;;5051767;28;20175;-66
2022/10/15 01:06:17;;;;;;;2.10;1.90;;;16.60;66.40;;;;;;5051104;28;20190;-65
2022/10/15 01:08:42;;;;;;;1.90;1.80;;;16.60;66.40;;;;;;5051231;28;20171;-66
2022/10/15 01:11:32;;;;;;;2.20;2.10;;;16.60;66.30;;;;;;5033733;28;20218;-66
2022/10/15 01:14:24;;;;;;;2.50;2.30;;;16.60;66.30;;;;;;5035181;28;20183;-66
2022/10/15 01:17:03;;;;;;;2.05;1.95;;;16.60;66.20;;;;;;5052674;28;20175;-66
2022/10/15 01:19:46;;;;;;;2.13;2.00;;;16.60;66.30;;;;;;5050836;28;20254;-66
2022/10/15 01:22:30;;;;;;;2.10;2.00;;;16.60;66.30;;;;;;5051083;28;20171;-66
2022/10/15 01:25:23;;;;;;;2.70;2.20;;;16.60;66.30;;;;;;5050629;28;20546;-66
2022/10/15 01:27:54;;;;;;;2.13;2.03;;;16.60;66.20;;;;;;5041019;28;20188;-66
2022/10/15 01:30:35;;;;;;;2.60;2.40;;;16.60;66.30;;;;;;5050566;28;20704;-66
2022/10/15 01:33:19;;;;;;;2.25;2.05;;;16.60;66.30;;;;;;5037441;28;20266;-65
2022/10/15 01:36:07;;;;;;;2.78;2.42;;;16.60;66.20;;;;;;5056139;28;20236;-65
2022/10/15 01:38:47;;;;;;;2.58;2.38;;;16.60;66.30;;;;;;5055136;28;20237;-66
2022/10/15 01:41:21;;;;;;;2.40;2.22;;;16.60;66.30;;;;;;5053991;28;20183;-66
2022/10/15 01:44:16;;;;;;;2.20;2.00;;;16.60;66.30;;;;;;5054863;28;20261;-66
2022/10/15 01:46:46;;;;;;;2.28;2.08;;;16.60;66.30;;;;;;5051648;28;20194;-67
2022/10/15 01:49:12;;;;;;;2.10;2.00;;;16.60;66.30;;;;;;5054573;28;20274;-66
2022/10/15 01:51:39;;;;;;;2.35;2.17;;;16.60;66.20;;;;;;5038266;28;20239;-66
2022/10/15 01:54:05;;;;;;;2.42;2.22;;;16.50;66.20;;;;;;5037100;28;20176;-66
2022/10/15 01:56:31;;;;;;;3.03;2.05;;;16.50;66.20;;;;;;5038053;28;20602;-66
2022/10/15 01:58:56;;;;;;;2.17;1.98;;;16.60;66.30;;;;;;5037520;28;20172;-66
2022/10/15 02:01:22;;;;;;;2.13;2.03;;;16.50;66.20;;;;;;5037226;28;20179;-66
2022/10/15 02:03:49;;;;;;;2.20;2.10;;;16.50;66.20;;;;;;5054494;28;20221;-66
2022/10/15 02:06:33;;;;;;;2.13;2.00;;;16.50;66.20;;;;;;5055202;28;20270;-66
2022/10/15 02:09:19;;;;;;;2.45;2.25;;;16.50;66.20;;;;;;5037133;28;20186;-65
2022/10/15 02:12:06;;;;;;;1.98;1.85;;;16.50;66.20;;;;;;5054504;28;20225;-67
2022/10/15 02:14:46;;;;;;;2.25;2.15;;;16.50;66.20;;;;;;5054774;28;20171;-66
2022/10/15 02:17:11;;;;;;;2.20;2.10;;;16.50;66.20;;;;;;5038239;28;20232;-66
2022/10/15 02:19:53;;;;;;;2.33;2.22;;;16.50;66.20;;;;;;5037769;28;20175;-66
2022/10/15 02:22:23;;;;;;;3.33;2.17;;;16.50;66.20;;;;;;5037373;28;20206;-66
2022/10/15 02:24:57;;;;;;;1.92;1.83;;;16.50;66.20;;;;;;5054177;28;20179;-66
2022/10/15 02:27:23;;;;;;;2.10;2.00;;;16.50;66.20;;;;;;5055144;28;20650;-66
2022/10/15 02:29:49;;;;;;;2.17;2.05;;;16.50;66.20;;;;;;5037150;28;20179;-67
2022/10/15 02:32:15;;;;;;;2.17;2.03;;;16.50;66.20;;;;;;5054881;28;20211;-66
2022/10/15 02:34:40;;;;;;;1.83;1.73;;;16.50;66.20;;;;;;5037438;28;20167;-66
2022/10/15 02:37:06;;;;;;;2.53;2.33;;;16.50;66.20;;;;;;5054084;28;20553;-65
2022/10/15 02:39:32;;;;;;;2.03;1.90;;;16.50;66.30;;;;;;5037461;28;20506;-66
2022/10/15 02:41:57;;;;;;;2.10;2.00;;;16.50;66.20;;;;;;5036947;28;20592;-66
2022/10/15 02:44:23;;;;;;;2.08;1.98;;;16.50;66.20;;;;;;5035240;28;20262;-66
2022/10/15 02:46:48;;;;;;;1.90;1.80;;;16.50;66.20;;;;;;5054952;28;20261;-66
2022/10/15 02:49:14;;;;;;;1.95;1.85;;;16.50;66.20;;;;;;5052844;28;20687;-67
2022/10/15 02:51:40;;;;;;;2.00;1.90;;;16.50;66.30;;;;;;5054810;28;20219;-66
2022/10/15 02:54:05;;;;;;;2.10;1.90;;;16.50;66.30;;;;;;5054414;28;20221;-66
2022/10/15 02:56:31;;;;;;;1.80;1.70;;;16.50;66.30;;;;;;5053800;28;20744;-66
2022/10/15 02:58:57;;;;;;;1.85;1.75;;;16.50;66.30;;;;;;5054367;28;20171;-66
2022/10/15 03:01:22;;;;;;;2.45;2.25;;;16.50;66.20;;;;;;5054792;28;20179;-66
2022/10/15 03:03:48;;;;;;;1.90;1.80;;;16.50;66.30;;;;;;5054069;28;20544;-66
2022/10/15 03:06:13;;;;;;;1.80;1.70;;;16.50;66.20;;;;;;5054290;28;20629;-65
2022/10/15 03:08:41;;;;;;;1.65;1.55;;;16.50;66.30;;;;;;5054389;28;20615;-66
2022/10/15 03:11:07;;;;;;;1.85;1.75;;;16.50;66.20;;;;;;5053049;28;20343;-66
2022/10/15 03:13:34;;;;;;;1.90;1.80;;;16.40;66.20;;;;;;5054344;28;20609;-66
2022/10/15 03:16:03;;;;;;;1.98;1.80;;;16.40;66.20;;;;;;5054112;28;20618;-66
2022/10/15 03:18:29;;;;;;;1.98;1.73;;;16.40;66.20;;;;;;5053486;28;20568;-65
2022/10/15 03:20:54;;;;;;;2.13;2.00;;;16.40;66.20;;;;;;5054193;28;20225;-66
2022/10/15 03:23:20;;;;;;;2.10;2.00;;;16.40;66.20;;;;;;5053655;28;20221;-66
2022/10/15 03:25:46;;;;;;;1.80;1.70;;;16.40;66.20;;;;;;5053332;28;20270;-66
2022/10/15 03:28:12;;;;;;;2.05;1.95;;;16.40;66.20;;;;;;5054047;28;20530;-66
2022/10/15 03:30:37;;;;;;;2.08;1.83;;;16.40;66.20;;;;;;5053942;28;20555;-66
2022/10/15 03:33:03;;;;;;;2.15;2.03;;;16.40;66.20;;;;;;5052986;28;20608;-65
2022/10/15 03:35:28;;;;;;;1.77;1.67;;;16.40;66.20;;;;;;5054151;28;20182;-66
2022/10/15 03:37:54;;;;;;;2.03;1.92;;;16.40;66.20;;;;;;5054098;28;20190;-66
2022/10/15 03:40:19;;;;;;;2.08;1.98;;;16.40;66.30;;;;;;5052752;28;20582;-66
2022/10/15 03:42:49;;;;;;;1.70;1.60;;;16.40;66.30;;;;;;5053846;28;20649;-67
2022/10/15 03:45:15;;;;;;;2.17;2.05;;;16.40;66.20;;;;;;5053861;28;20194;-66
2022/10/15 03:47:40;;;;;;;2.10;2.00;;;16.40;66.30;;;;;;5053194;28;20547;-67
2022/10/15 03:50:06;;;;;;;1.98;1.88;;;16.40;66.20;;;;;;5053349;28;20557;-66
2022/10/15 03:52:31;;;;;;;2.13;1.80;;;16.40;66.20;;;;;;5052622;28;20211;-66
2022/10/15 03:54:57;;;;;;;2.10;1.85;;;16.40;66.30;;;;;;5052619;28;20229;-66
2022/10/15 03:57:22;;;;;;;2.00;1.90;;;16.40;66.30;;;;;;5053922;28;20252;-67
2022/10/15 03:59:48;;;;;;;1.52;1.42;;;16.40;66.20;;;;;;5052927;28;20566;-67
2022/10/15 04:02:13;;;;;;;2.10;1.90;;;16.40;66.20;;;;;;5053170;28;20173;-66
2022/10/15 04:04:39;;;;;;;1.67;1.58;;;16.40;66.20;;;;;;5053505;28;20171;-66
2022/10/15 04:07:05;;;;;;;1.63;1.52;;;16.40;66.20;;;;;;5052606;28;20203;-66
2022/10/15 04:09:30;;;;;;;1.90;1.73;;;16.40;66.30;;;;;;5053110;28;20301;-66
2022/10/15 04:11:56;;;;;;;1.50;1.40;;;16.30;66.20;;;;;;5053211;28;20752;-66
2022/10/15 04:14:21;;;;;;;2.15;1.85;;;16.40;66.20;;;;;;5052394;28;20170;-66
2022/10/15 04:16:47;;;;;;;1.88;1.77;;;16.40;66.30;;;;;;5053113;28;20175;-66
2022/10/15 04:19:12;;;;;;;1.80;1.70;;;16.40;66.20;;;;;;5052824;28;20209;-66
2022/10/15 04:21:38;;;;;;;1.90;1.80;;;16.40;66.20;;;;;;5052363;28;20250;-66
2022/10/15 04:24:03;;;;;;;2.13;2.03;;;16.30;66.20;;;;;;5052681;28;20254;-66
2022/10/15 04:26:29;;;;;;;2.03;1.65;;;16.30;67.00;;;;;;5053224;28;20726;-66
2022/10/15 04:28:54;;;;;;;1.88;1.77;;;16.40;66.30;;;;;;5052534;28;20562;-66
2022/10/15 04:31:20;;;;;;;2.28;2.10;;;16.30;66.20;;;;;;5052668;28;20681;-67
2022/10/15 04:33:47;;;;;;;2.15;1.95;;;16.30;66.20;;;;;;5053139;28;20198;-66
2022/10/15 04:36:13;;;;;;;1.60;1.50;;;16.40;66.30;;;;;;5051790;28;20183;-65
2022/10/15 04:38:39;;;;;;;1.90;1.80;;;16.30;66.20;;;;;;5052639;28;20168;-65
2022/10/15 04:41:06;;;;;;;1.92;1.83;;;16.40;67.10;;;;;;5052603;28;20182;-66
2022/10/15 04:43:32;;;;;;;3.38;2.10;;;16.30;66.20;;;;;;5052242;28;20224;-67
2022/10/15 04:46:01;;;;;;;1.75;1.65;;;16.30;66.20;;;;;;5052572;28;20179;-66
2022/10/15 04:48:27;;;;;;;1.80;1.70;;;16.30;66.20;;;;;;5052678;28;20634;-66
2022/10/15 04:50:53;;;;;;;1.73;1.63;;;16.30;66.20;;;;;;5051904;28;20222;-65
2022/10/15 04:53:18;;;;;;;1.70;1.60;;;16.30;66.20;;;;;;5052418;28;20175;-66
2022/10/15 04:55:44;;;;;;;2.28;1.85;;;16.30;66.20;;;;;;5052846;28;20175;-66
2022/10/15 04:58:09;;;;;;;1.80;1.70;;;16.30;66.20;;;;;;5051981;28;20210;-66
2022/10/15 05:00:35;;;;;;;1.70;1.60;;;16.30;66.20;;;;;;5052666;28;20627;-67
2022/10/15 05:03:00;;;;;;;1.67;1.58;;;16.30;66.20;;;;;;5051736;28;20620;-65
2022/10/15 05:05:26;;;;;;;2.00;1.90;;;16.30;66.20;;;;;;5052665;28;20174;-65
2022/10/15 05:07:51;;;;;;;1.67;1.58;;;16.30;66.20;;;;;;5055574;28;20171;-66
2022/10/15 05:10:17;;;;;;;1.70;1.60;;;16.30;66.20;;;;;;5055706;28;20568;-66
2022/10/15 05:12:42;;;;;;;1.85;1.73;;;16.30;66.30;;;;;;5056484;28;20588;-66
2022/10/15 05:15:08;;;;;;;1.67;1.58;;;16.30;66.30;;;;;;5056344;28;20190;-65
2022/10/15 05:17:34;;;;;;;1.70;1.60;;;16.30;66.30;;;;;;5055848;28;20218;-66
2022/10/15 05:19:59;;;;;;;1.80;1.70;;;16.30;66.20;;;;;;5056152;28;20183;-66
2022/10/15 05:22:25;;;;;;;1.85;1.75;;;16.30;66.20;;;;;;5056394;28;20707;-65
2022/10/15 05:24:50;;;;;;;1.98;1.85;;;16.30;66.30;;;;;;5055951;28;20182;-66
2022/10/15 05:27:16;;;;;;;2.50;1.98;;;16.30;66.30;;;;;;5056175;28;20175;-66
2022/10/15 05:29:41;;;;;;;1.70;1.60;;;16.30;66.20;;;;;;5056401;28;20171;-66
2022/10/15 05:32:07;;;;;;;1.88;1.77;;;16.30;66.30;;;;;;5055133;28;20215;-65
2022/10/15 05:34:32;;;;;;;1.73;1.63;;;16.30;66.30;;;;;;5056173;28;20660;-65
2022/10/15 05:36:58;;;;;;;1.83;1.73;;;16.30;66.30;;;;;;5055864;28;20175;-65
2022/10/15 05:39:24;;;;;;;1.50;1.40;;;16.30;66.30;;;;;;5055662;28;20171;-65
2022/10/15 05:41:49;;;;;;;1.80;1.70;;;16.30;66.30;;;;;;5056180;28;20254;-66
2022/10/15 05:44:15;;;;;;;1.70;1.60;;;16.30;66.30;;;;;;5055981;28;20178;-66
2022/10/15 05:46:40;;;;;;;1.65;1.55;;;16.30;66.30;;;;;;5055513;28;20178;-66
2022/10/15 05:49:06;;;;;;;1.80;1.70;;;16.30;66.30;;;;;;5055761;28;20190;-66
2022/10/15 05:51:31;;;;;;;2.00;1.63;;;16.30;66.30;;;;;;5055806;28;20621;-66
2022/10/15 05:53:57;;;;;;;1.63;1.52;;;16.30;66.30;;;;;;5055154;28;20194;-66
2022/10/15 05:56:22;;;;;;;1.75;1.65;;;16.30;66.30;;;;;;5055990;28;20376;-66
2022/10/15 05:58:48;;;;;;;2.35;1.77;;;16.30;66.30;;;;;;5055935;28;20189;-66
2022/10/15 06:01:13;;;;;;;1.88;1.77;;;16.30;66.30;;;;;;5054846;28;20551;-66
2022/10/15 06:03:43;;;;;;;1.70;1.60;;;16.30;66.30;;;;;;5055674;28;20607;-66
2022/10/15 06:06:14;;;;;;;2.00;1.90;;;16.40;66.40;;;;;;5055105;28;20536;-66
2022/10/15 06:08:39;;;;;;;1.80;1.70;;;16.30;66.20;;;;;;5055856;28;20258;-66
2022/10/15 06:11:05;;;;;;;1.80;1.70;;;16.30;66.10;;;;;;5055086;28;20322;-66
2022/10/15 06:13:30;;;;;;;1.45;1.45;;;16.40;66.30;;;;;;5054927;28;20302;-66
2022/10/15 06:15:56;;;;;;;1.92;1.83;;;16.50;66.20;;;;;;5055569;28;20267;-65
2022/10/15 06:18:22;;;;;;;1.50;1.40;;;16.60;66.10;;;;;;5055180;28;20258;-66
2022/10/15 06:20:51;;;;;;;1.67;1.58;;;16.70;65.70;;;;;;5054649;28;20175;-65
2022/10/15 06:23:17;;;;;;;1.52;1.42;;;16.70;65.60;;;;;;5054933;28;20182;-65
2022/10/15 06:25:42;;;;;;;2.17;1.67;;;16.70;65.50;;;;;;5055168;28;20180;-65
2022/10/15 06:28:08;;;;;;;1.50;1.45;;;16.80;65.50;;;;;;5054229;28;20182;-65
2022/10/15 06:30:34;;;;;;;1.70;1.60;;;16.70;65.40;;;;;;5055375;28;20183;-66
2022/10/15 06:32:59;;;;;;;1.80;1.70;;;16.80;65.40;;;;;;5055021;28;20189;-66
2022/10/15 06:35:25;;;;;;;1.90;1.70;;;16.80;65.40;;;;;;5054595;28;20246;-68
2022/10/15 06:37:51;;;;;;;2.38;2.17;;;16.80;65.40;;;;;;5055136;28;20183;-65
2022/10/15 06:40:17;;;;;;;1.77;1.67;;;16.90;65.30;;;;;;5054932;28;20661;-65
2022/10/15 06:42:42;;;;;;;1.50;1.40;;;17.00;65.20;;;;;;5054288;28;20171;-66
2022/10/15 06:45:11;;;;;;;1.83;1.60;;;17.10;65.00;;;;;;5054559;28;20171;-66
2022/10/15 06:47:37;;;;;;;1.67;1.58;;;17.20;64.80;;;;;;5054695;28;20217;-66
2022/10/15 06:50:04;;;;;;;1.58;1.30;;;17.40;64.50;;;;;;5052472;28;20182;-66
2022/10/15 06:52:30;;;;;;;1.73;1.63;;;17.60;63.80;;;;;;5054797;28;20223;-66
2022/10/15 06:54:56;;;;;;;1.60;1.50;;;17.90;63.20;;;;;;5054837;28;20175;-66
2022/10/15 06:57:24;;;;;;;1.80;1.70;;;18.00;62.30;;;;;;5053749;28;20729;-66
2022/10/15 06:59:49;;;;;;;1.60;1.50;;;18.30;61.70;;;;;;5054684;28;20175;-66
2022/10/15 07:02:16;;;;;;;1.70;1.60;;;18.30;61.00;;;;;;5054028;28;20182;-66
2022/10/15 07:04:42;;;;;;;1.90;1.80;;;18.50;60.70;;;;;;5054025;28;20198;-66
2022/10/15 07:07:07;;;;;;;1.70;1.60;;;18.70;60.30;;;;;;5054192;28;20630;-65
2022/10/15 07:09:34;;;;;;;1.83;1.73;;;18.80;60.10;;;;;;5053508;28;20237;-66
2022/10/15 07:11:59;;;;;;;1.50;1.40;;;18.80;59.90;;;;;;5054124;28;20292;-66
2022/10/15 07:14:25;;;;;;;1.55;1.45;;;18.80;59.80;;;;;;5054406;28;20642;-66
2022/10/15 07:16:50;;;;;;;2.10;1.88;;;18.70;59.90;;;;;;5053491;28;20174;-66
2022/10/15 07:19:16;;;;;;;1.70;1.60;;;18.70;60.10;;;;;;5053948;28;20194;-66
2022/10/15 07:21:41;;;;;;;1.63;1.52;;;18.60;60.30;;;;;;5054188;28;20544;-66
2022/10/15 07:24:07;;;;;;;1.65;1.55;;;18.40;60.50;;;;;;5053300;28;20545;-66
2022/10/15 07:26:33;;;;;;;1.75;1.65;;;18.40;60.80;;;;;;5054354;28;20537;-66
2022/10/15 07:28:59;;;;;;;1.70;1.60;;;18.30;61.00;;;;;;5053422;28;20167;-66
2022/10/15 07:31:24;;;;;;;2.00;1.90;;;18.20;61.20;;;;;;5051873;28;20711;-65
2022/10/15 07:33:50;;;;;;;2.08;1.90;;;18.10;61.30;;;;;;5054164;28;20187;-65
2022/10/15 07:36:15;;;;;;;1.70;1.60;;;18.10;61.50;;;;;;5053703;28;20171;-65
2022/10/15 07:38:41;;;;;;;1.65;1.55;;;18.00;61.70;;;;;;5053211;28;20262;-65
2022/10/15 07:41:08;;;;;;;1.40;1.35;;;17.90;61.90;;;;;;5053599;28;20532;-66
2022/10/15 07:43:34;;;;;;;1.55;1.45;;;17.80;62.10;;;;;;5053843;28;20179;-66
2022/10/15 07:46:00;;;;;;;1.60;1.50;;;17.80;62.40;;;;;;5052595;28;20178;-67
2022/10/15 07:48:25;;;;;;;1.50;1.40;;;17.70;62.50;;;;;;5053678;28;20241;-66
2022/10/15 07:51:09;;;;;;;1.83;1.73;;;17.70;62.80;;;;;;5053870;28;20203;-66
2022/10/15 07:53:34;;;;;;;1.83;1.73;;;17.70;62.90;;;;;;5035162;28;20171;-66
2022/10/15 07:56:01;;;;;;;2.00;1.88;;;17.60;62.90;;;;;;5053432;28;20175;-66
2022/10/15 07:58:29;;;;;;;1.83;1.73;;;17.70;63.10;;;;;;5053394;28;20171;-66
2022/10/15 08:00:55;;;;;;;1.85;1.70;;;17.70;63.10;;;;;;5052962;28;20206;-68
2022/10/15 08:03:20;;;;;;;11.43;3.05;;;17.70;63.20;;;;;;5053061;28;20518;-66
2022/10/15 08:05:46;;;;;;;3.05;1.75;;;17.70;63.30;;;;;;5052787;28;20178;-66
2022/10/15 08:08:11;;;;;;;3.55;1.92;;;17.60;63.50;;;;;;5053109;28;20175;-66
2022/10/15 08:10:37;;;;;;;4.75;1.95;;;17.60;63.60;;;;;;5052915;28;20246;-67
2022/10/15 08:13:02;;;;;;;2.33;1.92;;;17.60;63.80;;;;;;5052060;28;20179;-66
2022/10/15 08:15:28;;;;;;;3.92;1.95;;;17.60;63.90;;;;;;5053102;28;20179;-66
2022/10/15 08:17:53;;;;;;;5.13;3.20;;;17.70;63.90;;;;;;5053346;28;20262;-66
2022/10/15 08:20:19;;;;;;;5.10;3.22;;;17.80;64.00;;;;;;5052202;28;20221;-66
2022/10/15 08:22:44;;;;;;;4.53;2.55;;;17.80;64.00;;;;;;5053224;28;20266;-66
2022/10/15 08:25:10;;;;;;;3.85;2.95;;;17.70;63.90;;;;;;5052836;28;20261;-66
2022/10/15 08:27:36;;;;;;;5.47;3.70;;;17.80;64.00;;;;;;5052112;28;20175;-66
2022/10/15 08:30:02;;;;;;;5.45;3.80;;;17.70;64.10;;;;;;5052589;28;20564;-65
2022/10/15 08:32:27;;;;;;;7.28;4.07;;;17.70;64.20;;;;;;5053066;28;20740;-65
2022/10/15 08:34:53;;;;;;;5.32;4.50;;;17.70;64.40;;;;;;5052239;28;20584;-65
2022/10/15 08:37:18;;;;;;;4.72;4.25;;;17.80;64.60;;;;;;5052765;28;20637;-66
2022/10/15 08:39:44;;;;;;;4.95;4.28;;;17.90;64.50;;;;;;5053008;28;20278;-68
2022/10/15 08:42:21;;;;;;;4.82;4.15;;;17.90;64.30;;;;;;5050413;28;20616;-66
2022/10/15 08:44:50;;;;;;;7.97;4.60;;;18.00;64.10;;;;;;5035688;28;20190;-66
2022/10/15 08:47:29;;;;;;;6.45;5.22;;;18.00;64.10;;;;;;5051194;28;20175;-66
2022/10/15 08:50:00;;;;;;;5.65;4.70;;;18.00;64.10;;;;;;5050832;28;20225;-66
2022/10/15 08:52:58;;;;;;;6.10;4.43;;;18.00;64.00;;;;;;5051250;28;20260;-65
2022/10/15 08:55:23;;;;;;;6.13;4.30;;;18.00;64.20;;;;;;5039307;28;20179;-66
2022/10/15 08:58:12;;;;;;;5.05;4.40;;;18.00;64.20;;;;;;5035021;28;20182;-66
2022/10/15 09:00:52;;;;;;;4.25;3.50;;;18.10;64.40;;;;;;5052851;28;20656;-67
2022/10/15 09:03:21;;;;;;;7.35;3.80;;;18.10;64.40;;;;;;5055753;28;20202;-66
2022/10/15 09:05:58;;;;;;;6.47;4.00;;;18.10;64.50;;;;;;5054076;28;20697;-66
2022/10/15 09:08:39;;;;;;;4.07;3.67;;;18.10;64.50;;;;;;5031739;28;20270;-66
2022/10/15 09:11:18;;;;;;;5.53;3.60;;;18.10;64.50;;;;;;5068692;28;20588;-69
2022/10/15 09:13:43;;;;;;;4.20;3.38;;;18.10;64.60;;;;;;5071560;28;20186;-66
2022/10/15 09:16:16;;;;;;;5.63;3.72;;;18.10;64.80;;;;;;5070430;28;20174;-65
2022/10/15 09:18:46;;;;;;;5.82;3.53;;;18.10;64.90;;;;;;5061073;28;20671;-68
2022/10/15 09:21:12;;;;;;;3.33;3.03;;;18.00;65.00;;;;;;5051164;28;20193;-68
2022/10/15 09:23:37;;;;;;;4.35;3.50;;;18.00;65.10;;;;;;5051758;28;20175;-67
2022/10/15 09:26:11;;;;;;;4.97;2.95;;;18.00;65.10;;;;;;5051234;28;20661;-68
2022/10/15 09:29:01;;;;;;;5.90;3.40;;;17.90;65.30;;;;;;5034609;28;20629;-69
2022/10/15 09:31:49;;;;;;;3.55;3.25;;;17.90;65.30;;;;;;5034524;28;20203;-70
2022/10/15 09:34:23;;;;;;;4.60;2.90;;;17.90;65.50;;;;;;5040190;28;20625;-70
2022/10/15 09:36:53;;;;;;;4.95;3.60;;;17.80;65.60;;;;;;5052010;28;20227;-69
2022/10/15 09:39:28;;;;;;;5.60;3.28;;;17.80;65.60;;;;;;5034255;28;20171;-70
2022/10/15 09:42:18;;;;;;;3.65;3.33;;;17.80;65.70;;;;;;5062699;28;20591;-70
2022/10/15 09:44:44;;;;;;;3.95;3.00;;;17.80;65.90;;;;;;5050110;28;20159;-70
2022/10/15 09:47:24;;;;;;;6.25;3.50;;;17.90;65.50;;;;;;5034439;28;20268;-70
2022/10/15 09:49:49;;;;;;;3.88;3.58;;;17.80;65.90;;;;;;5065114;28;20174;-71
2022/10/15 09:52:29;;;;;;;4.55;3.33;;;17.90;66.20;;;;;;5071251;28;20218;-70
2022/10/15 09:54:57;;;;;;;3.80;3.15;;;17.80;66.10;;;;;;5049806;28;20171;-68
2022/10/15 09:57:22;;;;;;;4.00;3.42;;;17.80;66.10;;;;;;5055547;28;20209;-70
2022/10/15 09:59:55;;;;;;;3.63;3.33;;;17.90;66.30;;;;;;5053620;28;20254;-68
2022/10/15 10:02:22;;;;;;;4.15;3.03;;;17.90;66.10;;;;;;5055458;28;20201;-69
2022/10/15 10:04:48;;;;;;;3.25;2.90;;;17.80;66.10;;;;;;5055521;28;20514;-67
2022/10/15 10:07:28;;;;;;;3.38;2.83;;;17.80;66.10;;;;;;5070413;28;20188;-68
2022/10/15 10:09:55;;;;;;;5.32;3.22;;;17.80;66.10;;;;;;5063326;28;20253;-67
2022/10/15 10:12:24;;;;;;;7.95;3.20;;;17.80;66.20;;;;;;5036546;28;20292;-70
2022/10/15 10:15:05;;;;;;;6.65;2.90;;;17.90;67.00;;;;;;5053391;28;20182;-68
2022/10/15 10:17:31;;;;;;;6.13;3.35;;;17.90;67.00;;;;;;5053709;28;20183;-74
2022/10/15 10:20:09;;;;;;;6.20;2.97;;;17.90;66.70;;;;;;5052630;28;20246;-66
2022/10/15 10:22:48;;;;;;;5.47;3.80;;;17.80;66.50;;;;;;5054915;28;20206;-71
2022/10/15 10:25:26;;;;;;;10.70;3.92;;;17.80;67.10;;;;;;5035168;28;20186;-69
2022/10/15 10:27:52;;;;;;;5.88;3.45;;;17.80;67.30;;;;;;5034630;28;20183;-66
2022/10/15 10:30:18;;;;;;;8.30;3.33;;;17.90;67.20;;;;;;5053227;28;20189;-66
2022/10/15 10:32:43;;;;;;;6.43;3.75;;;17.90;67.20;;;;;;5053927;28;20202;-65
2022/10/15 10:35:22;;;;;;;9.85;3.70;;;17.90;67.20;;;;;;5052828;28;20175;-64
2022/10/15 10:37:48;;;;;;;11.10;3.42;;;17.90;67.30;;;;;;5054030;28;20252;-64
2022/10/15 10:40:28;;;;;;;8.43;3.25;;;17.90;67.40;;;;;;5059539;28;20265;-64
2022/10/15 10:43:10;;;;;;;5.63;2.97;;;17.90;67.50;;;;;;5073508;28;20361;-65
2022/10/15 10:45:35;;;;;;;6.30;2.92;;;17.90;67.40;;;;;;5075016;28;20253;-72
2022/10/15 10:48:27;;;;;;;6.95;3.30;;;17.80;67.40;;;;;;5073182;28;20261;-70
2022/10/15 10:51:03;;;;;;;5.05;3.08;;;17.80;67.50;;;;;;5054920;28;20286;-68
2022/10/15 10:53:28;;;;;;;11.52;3.30;;;17.80;67.40;;;;;;5054813;28;20178;-69
2022/10/15 10:55:54;;;;;;;10.02;3.80;;;17.70;67.60;;;;;;5054122;28;20237;-69
2022/10/15 10:58:21;;;;;;;6.40;2.83;;;17.70;67.70;;;;;;5036411;28;20554;-69
2022/10/15 11:00:48;;;;;;;8.43;3.65;;;17.60;67.80;;;;;;5054487;28;20179;-69
2022/10/15 11:03:26;;;;;;;6.15;2.95;;;17.60;68.00;;;;;;5053734;28;20183;-69
2022/10/15 11:05:55;;;;;;;6.00;3.45;;;17.60;67.90;;;;;;5052895;28;20610;-70
2022/10/15 11:08:44;;;;;;;7.57;3.40;;;17.50;67.90;;;;;;5052508;28;20690;-70
2022/10/15 11:11:12;;;;;;;4.13;2.95;;;17.50;67.90;;;;;;5049226;28;20282;-69
2022/10/15 11:14:31;;;;;;;3.78;3.28;;;17.60;68.00;;;;;;5033473;28;20210;-69
2022/10/15 11:17:06;;;;;;;3.05;2.75;;;17.50;67.90;;;;;;5030630;28;20176;-68
2022/10/15 11:19:42;;;;;;;3.92;3.35;;;17.50;68.00;;;;;;5046388;28;20179;-68
2022/10/15 11:22:25;;;;;;;5.30;3.15;;;17.50;68.00;;;;;;5053032;28;20163;-69
2022/10/15 11:24:58;;;;;;;3.40;2.97;;;17.50;68.00;;;;;;5053290;28;20254;-69
2022/10/15 11:27:44;;;;;;;3.55;2.80;;;17.50;68.10;;;;;;5053168;28;20191;-70
2022/10/15 11:30:25;;;;;;;3.63;2.88;;;17.50;68.00;;;;;;5052691;28;20175;-70
2022/10/15 11:33:21;;;;;;;6.45;2.72;;;17.50;68.00;;;;;;5051813;28;20706;-70
2022/10/15 11:36:08;;;;;;;4.35;2.80;;;17.50;68.20;;;;;;5052714;28;20175;-70
2022/10/15 11:38:59;;;;;;;5.53;3.03;;;17.50;68.00;;;;;;5051642;28;20198;-71
2022/10/15 11:41:34;;;;;;;3.40;2.70;;;17.50;68.00;;;;;;5059227;28;20192;-72
2022/10/15 11:44:05;;;;;;;4.85;3.30;;;17.50;68.10;;;;;;5072861;28;20174;-71
2022/10/15 11:46:43;;;;;;;4.32;2.90;;;17.50;68.10;;;;;;5073579;28;20182;-71
2022/10/15 11:49:27;;;;;;;9.43;3.05;;;17.60;68.20;;;;;;5064361;28;20686;-70
2022/10/15 11:52:14;;;;;;;9.05;2.95;;;17.60;68.20;;;;;;5052455;28;20207;-71
2022/10/15 11:54:44;;;;;;;4.38;3.10;;;17.60;68.20;;;;;;5053879;28;20167;-70
2022/10/15 11:57:11;;;;;;;5.07;3.15;;;17.60;68.40;;;;;;5052410;28;20175;-69
2022/10/15 11:59:54;;;;;;;3.08;2.40;;;17.60;68.20;;;;;;5051059;28;20545;-70
2022/10/15 12:02:29;;;;;;;6.95;2.95;;;17.60;68.30;;;;;;5053389;28;20246;-70
2022/10/15 12:05:08;;;;;;;4.75;2.60;;;17.50;68.10;;;;;;5051368;28;20194;-72
2022/10/15 12:07:40;;;;;;;3.47;2.40;;;17.60;68.40;;;;;;5051798;28;20646;-71
2022/10/15 12:10:31;;;;;;;2.63;2.42;;;17.60;68.30;;;;;;5065433;28;20222;-71
2022/10/15 12:13:12;;;;;;;2.78;2.33;;;17.60;68.40;;;;;;5072083;28;20675;-71
2022/10/15 12:15:47;;;;;;;4.63;2.33;;;17.60;68.40;;;;;;5073271;28;20189;-71
2022/10/15 12:18:34;;;;;;;4.18;2.60;;;17.50;68.40;;;;;;5056256;28;20178;-69
2022/10/15 12:20:59;;;;;;;6.47;3.10;;;17.60;68.40;;;;;;5033456;28;20179;-69
2022/10/15 12:23:26;;;;;;;3.97;2.60;;;17.60;68.50;;;;;;5052758;28;20564;-67
2022/10/15 12:25:51;;;;;;;11.35;3.10;;;17.60;68.50;;;;;;5051373;28;20178;-70
2022/10/15 12:28:25;;;;;;;8.18;3.13;;;17.50;68.50;;;;;;5034365;28;20175;-67
2022/10/15 12:30:56;;;;;;;3.50;2.40;;;17.50;68.50;;;;;;5051913;28;20221;-67
2022/10/15 12:33:34;;;;;;;4.78;2.70;;;17.50;68.50;;;;;;5052020;28;20178;-69
2022/10/15 12:36:19;;;;;;;6.93;2.78;;;17.50;68.50;;;;;;5036101;28;20186;-68
2022/10/15 12:38:57;;;;;;;6.55;2.67;;;17.50;68.50;;;;;;5051714;28;20545;-67
2022/10/15 12:41:37;;;;;;;10.60;2.63;;;17.50;68.60;;;;;;5067685;28;20178;-68
2022/10/15 12:44:31;;;;;;;7.75;2.50;;;17.60;68.70;;;;;;5072171;28;20651;-68
2022/10/15 12:46:57;;;;;;;3.90;2.20;;;17.60;68.70;;;;;;5055701;28;20220;-67
2022/10/15 12:49:25;;;;;;;3.72;2.63;;;17.60;68.70;;;;;;5053880;28;20178;-67
2022/10/15 12:51:55;;;;;;;4.05;2.25;;;17.50;68.60;;;;;;5073023;28;20210;-67
2022/10/15 12:54:36;;;;;;;9.30;2.40;;;17.60;68.60;;;;;;5070673;28;20219;-68
2022/10/15 12:57:23;;;;;;;3.15;2.42;;;17.60;68.60;;;;;;5071721;28;20188;-68
2022/10/15 12:59:52;;;;;;;4.07;2.88;;;17.60;68.70;;;;;;5072266;28;20206;-71